Amasia, Armenia

12:28 PM +04 die 05o December, anno 2016 (GMT +0400)
Gyumri Shirak Airport | | Change Station

Elev 5000 ft 40.75 °N, 43.86 °E | Updated 28 minutes ago

Mostly Cloudy
Plerumque Nubila
32 °F
Feels Like 32 °F
N
0
Ventus Variabilis Ventus from Aquilo

Hodie
High -- | Low -- °F
--% Chance of Precip.
Yesterday
High -- | Low -- °F
Precip. -- in
Pressio 30.12 in
Visibilitas 5.6 milia passuum
Clouds Plerumque Nubila 4600 ft
Frigus in quo Ros apparet 21 °F
Umor 64%
Rainfall 0.00 in
Snow Depth Not available.
8:14 AM 5:36 PM
Waxing Crescent, 29% visible
METAR UDSG 050800Z 00000KT 9000 BKN046 M00/M06 Q1020 R02/CLRD70 NOSIG
Pressio 30.12 in
Visibilitas 5.6 milia passuum
Clouds Plerumque Nubila 4600 ft
Frigus in quo Ros apparet 21 °F
Umor 64%
Rainfall 0.00 in
Snow Depth Not available.
8:14 AM 5:36 PM
Waxing Crescent, 29% visible
METAR UDSG 050800Z 00000KT 9000 BKN046 M00/M06 Q1020 R02/CLRD70 NOSIG

10-Day Weather Forecast

×

Almanac

Astronomy

Dec. 05, 2016 Rise Set
Actual Time
Civil Twilight
Nautical Twilight
Astronomical Twilight
Moon
Length Of Visible Light
Length of Day
Tomorrow will be .
, % of the Moon is Illuminated

Today's Extremes

Country Highs Country Lows

Community

WunderPhotos

Upload Photos

1,955,771 photos uploaded!

WunderBlog® & News

Nearby

Air Quality

  Air Quality AQ Index Pollutant
Not available.

Snow Depth

Station Depth Elevation

Earthquake Activity

City Distance Mag. Time & Date
Minimum magnitude displayed is 2.5.

Coastal Water Temperatures

Locus Calor

Stations

Nearby Weather Stations

Station Location Temp Frigus Venti Frigus in quo Ros apparet Umor Ventus Precip. Elev Renovata Type